createdAt,value
2017-07-23T00:00:41.171Z,57.8
2017-07-23T00:01:42.814Z,57.5
2017-07-23T00:02:44.441Z,57.7
2017-07-23T00:03:46.085Z,57.7
2017-07-23T00:04:47.713Z,57.7
2017-07-23T00:05:49.343Z,57.5
2017-07-23T00:06:51.497Z,57.7
2017-07-23T00:07:53.131Z,57.9
2017-07-23T00:08:54.767Z,57.9
2017-07-23T00:09:57.978Z,57.9
2017-07-23T00:10:59.617Z,57.9
2017-07-23T00:12:01.251Z,57.7
2017-07-23T00:13:02.891Z,57.8
2017-07-23T00:14:04.823Z,57.7
2017-07-23T00:15:06.463Z,57.9
2017-07-23T00:16:08.093Z,57.9
2017-07-23T00:17:09.727Z,57.8
2017-07-23T00:18:11.369Z,58.1
2017-07-23T00:19:13.651Z,58.1
2017-07-23T00:20:15.298Z,58.1
2017-07-23T00:21:16.992Z,57.9
2017-07-23T00:22:18.627Z,57.9
2017-07-23T00:23:20.321Z,57.9
2017-07-23T00:24:21.956Z,57.9
2017-07-23T00:25:23.589Z,58.0
2017-07-23T00:26:25.229Z,57.8
2017-07-23T00:27:27.078Z,58.1
2017-07-23T00:28:28.825Z,58.1
2017-07-23T00:29:30.568Z,58.0
2017-07-23T00:30:32.198Z,58.3
2017-07-23T00:31:33.847Z,58.0
2017-07-23T00:32:35.542Z,58.0
2017-07-23T00:33:37.286Z,58.2
2017-07-23T00:34:39.028Z,58.2
2017-07-23T00:35:40.660Z,58.2
2017-07-23T00:36:42.431Z,58.0
2017-07-23T00:37:44.046Z,58.4
2017-07-23T00:38:45.689Z,57.6
2017-07-23T00:39:47.320Z,58.2
2017-07-23T00:40:48.955Z,58.4
2017-07-23T00:41:50.592Z,58.2
2017-07-23T00:42:52.300Z,58.1
2017-07-23T00:43:53.931Z,58.5
2017-07-23T00:44:55.565Z,58.3
2017-07-23T00:45:57.203Z,58.1
2017-07-23T00:46:58.834Z,58.5
2017-07-23T00:48:00.467Z,58.5
2017-07-23T00:49:02.105Z,58.5
2017-07-23T00:50:03.943Z,58.5
2017-07-23T00:51:05.543Z,58.1
2017-07-23T00:52:07.180Z,58.5
2017-07-23T00:53:08.809Z,58.6
2017-07-23T00:54:10.445Z,58.4
2017-07-23T00:55:12.078Z,58.4
2017-07-23T00:56:13.715Z,58.1
2017-07-23T00:57:15.349Z,58.5
2017-07-23T00:58:16.983Z,58.5
2017-07-23T00:59:18.616Z,58.5
2017-07-23T01:00:20.266Z,58.6
2017-07-23T01:01:21.903Z,58.6
2017-07-23T01:02:23.539Z,58.6
2017-07-23T01:03:25.179Z,58.1
2017-07-23T01:04:26.809Z,58.6
2017-07-23T01:05:28.454Z,58.5
2017-07-23T01:06:30.087Z,58.4
2017-07-23T01:07:31.720Z,58.3
2017-07-23T01:08:33.354Z,58.3
2017-07-23T01:09:34.990Z,58.4
2017-07-23T01:10:36.628Z,58.4
2017-07-23T01:11:38.259Z,58.4
2017-07-23T01:12:39.896Z,58.5
2017-07-23T01:13:41.528Z,58.3
2017-07-23T01:14:43.162Z,58.6
2017-07-23T01:15:44.796Z,58.4
2017-07-23T01:16:46.432Z,58.5
2017-07-23T01:17:48.068Z,58.8
2017-07-23T01:18:49.699Z,58.9
2017-07-23T01:19:51.333Z,58.6
2017-07-23T01:20:52.962Z,58.7
2017-07-23T01:21:54.598Z,58.7
2017-07-23T01:22:56.229Z,58.5
2017-07-23T01:23:57.876Z,58.2
2017-07-23T01:24:59.502Z,58.4
2017-07-23T01:26:01.133Z,58.8
2017-07-23T01:27:02.765Z,58.6
2017-07-23T01:28:04.401Z,58.5
2017-07-23T01:29:06.038Z,58.8
2017-07-23T01:30:07.668Z,59.0
2017-07-23T01:31:09.306Z,59.0
2017-07-23T01:32:10.946Z,58.9
2017-07-23T01:33:12.581Z,58.8
2017-07-23T01:34:14.208Z,58.7
2017-07-23T01:35:15.843Z,59.1
2017-07-23T01:36:17.476Z,58.8
2017-07-23T01:37:19.113Z,58.7
2017-07-23T01:38:20.745Z,59.0
2017-07-23T01:39:22.382Z,58.8
2017-07-23T01:40:24.011Z,58.6
2017-07-23T01:41:25.645Z,59.0
2017-07-23T01:42:27.284Z,58.7
2017-07-23T01:43:28.912Z,58.7
2017-07-23T01:44:30.545Z,59.1
2017-07-23T01:45:32.185Z,58.8
2017-07-23T01:46:33.819Z,58.8
2017-07-23T01:47:35.449Z,58.9
2017-07-23T01:48:37.081Z,58.8
2017-07-23T01:49:38.714Z,58.7
2017-07-23T01:50:40.344Z,58.9
2017-07-23T01:51:41.987Z,58.6
2017-07-23T01:52:43.616Z,58.8
2017-07-23T01:53:45.251Z,58.8
2017-07-23T01:54:46.882Z,58.7
2017-07-23T01:55:48.515Z,58.8
2017-07-23T01:56:50.148Z,59.0
2017-07-23T01:57:51.781Z,58.8
2017-07-23T01:58:53.414Z,58.9
2017-07-23T01:59:55.048Z,58.8
2017-07-23T02:00:56.681Z,58.7
2017-07-23T02:01:58.314Z,58.7
2017-07-23T02:02:59.951Z,58.7
2017-07-23T02:04:01.578Z,58.5
2017-07-23T02:05:03.216Z,58.7
2017-07-23T02:06:04.850Z,58.7
2017-07-23T02:07:06.482Z,58.9
2017-07-23T02:08:08.120Z,59.1
2017-07-23T02:09:09.757Z,59.3
2017-07-23T02:10:11.382Z,59.2
2017-07-23T02:11:13.014Z,59.1
2017-07-23T02:12:14.645Z,59.1
2017-07-23T02:13:16.280Z,59.2
2017-07-23T02:14:17.915Z,59.2
2017-07-23T02:15:19.551Z,59.0
2017-07-23T02:16:21.179Z,59.3
2017-07-23T02:17:22.814Z,59.1
2017-07-23T02:18:24.444Z,59.2
2017-07-23T02:19:26.074Z,59.0
2017-07-23T02:20:27.711Z,59.3
2017-07-23T02:21:29.346Z,59.1
2017-07-23T02:22:30.978Z,59.1
2017-07-23T02:23:32.611Z,59.1
2017-07-23T02:24:34.246Z,59.3
2017-07-23T02:25:35.877Z,58.8
2017-07-23T02:26:37.518Z,59.3
2017-07-23T02:27:39.144Z,59.1
2017-07-23T02:28:40.778Z,59.3
2017-07-23T02:29:42.416Z,59.0
2017-07-23T02:30:44.081Z,58.9
2017-07-23T02:31:45.716Z,58.9
2017-07-23T02:32:47.351Z,58.8
2017-07-23T02:33:49.010Z,58.8
2017-07-23T02:34:50.643Z,59.0
2017-07-23T02:35:52.277Z,58.8
2017-07-23T02:36:53.914Z,58.7
2017-07-23T02:37:55.566Z,58.7
2017-07-23T02:38:57.197Z,58.5
2017-07-23T02:39:58.827Z,58.8
2017-07-23T02:41:00.462Z,58.6
2017-07-23T02:42:02.102Z,58.8
2017-07-23T02:43:03.736Z,58.8
2017-07-23T02:44:05.367Z,59.1
2017-07-23T02:45:07.003Z,58.8
2017-07-23T02:46:08.630Z,59.0
2017-07-23T02:47:10.262Z,58.7
2017-07-23T02:48:11.896Z,58.8
2017-07-23T02:49:13.530Z,58.8
2017-07-23T02:50:15.167Z,58.7
2017-07-23T02:51:16.806Z,58.7
2017-07-23T02:52:18.432Z,58.6
2017-07-23T02:53:20.064Z,58.7
2017-07-23T02:54:21.696Z,58.8
2017-07-23T02:55:23.332Z,58.9
2017-07-23T02:56:24.963Z,58.9
2017-07-23T02:57:26.599Z,58.8
2017-07-23T02:58:28.232Z,58.8
2017-07-23T02:59:29.877Z,59.2
2017-07-23T03:00:31.513Z,58.9
2017-07-23T03:01:33.144Z,59.0
2017-07-23T03:02:34.778Z,58.8
2017-07-23T03:03:36.465Z,58.5
2017-07-23T03:04:38.101Z,59.0
2017-07-23T03:05:39.739Z,58.8
2017-07-23T03:06:41.391Z,59.1
2017-07-23T03:07:43.026Z,58.8
2017-07-23T03:08:44.665Z,59.2
2017-07-23T03:09:46.312Z,59.0
2017-07-23T03:10:47.945Z,59.2
2017-07-23T03:11:49.582Z,59.2
2017-07-23T03:12:51.217Z,58.9
2017-07-23T03:13:52.848Z,59.0
2017-07-23T03:14:54.480Z,58.7
2017-07-23T03:15:56.115Z,59.3
2017-07-23T03:16:57.746Z,58.9
2017-07-23T03:17:59.382Z,58.8
2017-07-23T03:19:01.128Z,58.9
2017-07-23T03:20:02.763Z,59.1
2017-07-23T03:21:04.392Z,58.7
2017-07-23T03:22:06.025Z,59.0
2017-07-23T03:23:07.662Z,59.0
2017-07-23T03:24:09.294Z,58.7
2017-07-23T03:25:10.928Z,58.8
2017-07-23T03:26:12.562Z,58.6
2017-07-23T03:27:14.201Z,58.5
2017-07-23T03:28:15.845Z,58.8
2017-07-23T03:29:17.478Z,58.6
2017-07-23T03:30:19.122Z,59.2
2017-07-23T03:31:20.760Z,58.8
2017-07-23T03:32:22.395Z,59.2
2017-07-23T03:33:24.024Z,59.1
2017-07-23T03:34:25.660Z,59.1
2017-07-23T03:35:27.294Z,59.1
2017-07-23T03:36:28.923Z,58.6
2017-07-23T03:37:30.557Z,58.9
2017-07-23T03:38:32.190Z,59.0
2017-07-23T03:39:33.827Z,58.9
2017-07-23T03:40:35.470Z,58.6
2017-07-23T03:41:37.116Z,58.7
2017-07-23T03:42:38.738Z,58.4
2017-07-23T03:43:40.372Z,58.9
2017-07-23T03:44:42.008Z,59.0
2017-07-23T03:45:43.644Z,59.1
2017-07-23T03:46:45.278Z,58.7
2017-07-23T03:47:46.919Z,58.5
2017-07-23T03:48:48.558Z,58.7
2017-07-23T03:49:50.192Z,58.5
2017-07-23T03:50:51.826Z,59.0
2017-07-23T03:51:53.458Z,58.8
2017-07-23T03:52:55.094Z,58.8
2017-07-23T03:53:56.723Z,58.8
2017-07-23T03:54:58.360Z,58.9
2017-07-23T03:56:00.004Z,58.5
2017-07-23T03:57:01.641Z,58.6
2017-07-23T03:58:03.268Z,58.5
2017-07-23T03:59:04.896Z,58.7
2017-07-23T04:00:06.534Z,58.8
2017-07-23T04:01:08.170Z,58.5
2017-07-23T04:02:09.809Z,58.6
2017-07-23T04:03:11.438Z,58.7
2017-07-23T04:04:13.069Z,59.0
2017-07-23T04:05:14.704Z,58.7
2017-07-23T04:06:16.336Z,58.7
2017-07-23T04:07:17.971Z,58.7
2017-07-23T04:08:19.603Z,58.4
2017-07-23T04:09:21.237Z,58.8
2017-07-23T04:10:22.872Z,58.5
2017-07-23T04:11:24.503Z,58.7
2017-07-23T04:12:26.134Z,58.7
2017-07-23T04:13:27.775Z,58.5
2017-07-23T04:14:29.414Z,59.0
2017-07-23T04:15:31.053Z,58.9
2017-07-23T04:16:32.686Z,58.8
2017-07-23T04:17:34.325Z,58.6
2017-07-23T04:18:35.953Z,58.6
2017-07-23T04:19:37.588Z,58.8
2017-07-23T04:20:39.225Z,58.8
2017-07-23T04:21:40.857Z,58.7
2017-07-23T04:22:42.489Z,58.6
2017-07-23T04:23:44.128Z,58.7
2017-07-23T04:24:45.775Z,58.7
2017-07-23T04:25:47.408Z,58.7
2017-07-23T04:26:49.043Z,58.7
2017-07-23T04:27:50.672Z,58.7
2017-07-23T04:28:52.311Z,58.6
2017-07-23T04:29:53.943Z,58.6
2017-07-23T04:30:55.627Z,58.9
2017-07-23T04:31:57.263Z,58.8
2017-07-23T04:32:58.899Z,58.7
2017-07-23T04:34:00.531Z,58.7
2017-07-23T04:35:02.167Z,58.6
2017-07-23T04:36:03.797Z,58.6
2017-07-23T04:37:05.450Z,58.8
2017-07-23T04:38:07.069Z,58.7
2017-07-23T04:39:08.706Z,58.7
2017-07-23T04:40:10.341Z,58.7
2017-07-23T04:41:11.974Z,58.6
2017-07-23T04:42:13.612Z,58.7
2017-07-23T04:43:15.237Z,58.7
2017-07-23T04:44:16.881Z,58.6
2017-07-23T04:45:18.533Z,58.8
2017-07-23T04:46:20.172Z,58.7
2017-07-23T04:47:21.805Z,58.7
2017-07-23T04:48:23.449Z,58.6
2017-07-23T04:49:25.076Z,59.1
2017-07-23T04:50:26.712Z,58.9
2017-07-23T04:51:28.343Z,58.9
2017-07-23T04:52:29.979Z,58.9
2017-07-23T04:53:31.615Z,58.8
2017-07-23T04:54:33.251Z,58.6
2017-07-23T04:55:34.884Z,58.7
2017-07-23T04:56:36.518Z,58.6
2017-07-23T04:57:38.156Z,58.8
2017-07-23T04:58:39.792Z,58.9
2017-07-23T04:59:41.434Z,58.8
2017-07-23T05:00:43.062Z,58.8
2017-07-23T05:01:44.694Z,58.4
2017-07-23T05:02:46.335Z,58.3
2017-07-23T05:03:47.965Z,58.3
2017-07-23T05:04:49.600Z,58.3
2017-07-23T05:05:51.244Z,58.3
2017-07-23T05:06:52.877Z,58.3
2017-07-23T05:07:54.514Z,58.3
2017-07-23T05:08:56.149Z,58.2
2017-07-23T05:09:57.786Z,58.3
2017-07-23T05:10:59.417Z,58.1
2017-07-23T05:12:01.047Z,58.4
2017-07-23T05:13:02.687Z,58.4
2017-07-23T05:14:04.324Z,58.4
2017-07-23T05:15:05.965Z,58.4
2017-07-23T05:16:07.598Z,58.4
2017-07-23T05:17:09.232Z,58.7
2017-07-23T05:18:10.879Z,58.0
2017-07-23T05:19:12.513Z,58.2
2017-07-23T05:20:14.153Z,58.1
2017-07-23T05:21:15.791Z,58.4
2017-07-23T05:22:17.425Z,58.1
2017-07-23T05:23:19.058Z,58.2
2017-07-23T05:24:20.692Z,58.2
2017-07-23T05:25:22.327Z,58.2
2017-07-23T05:26:24.060Z,58.2
2017-07-23T05:27:25.694Z,58.2
2017-07-23T05:28:27.325Z,58.3
2017-07-23T05:29:28.965Z,58.2
2017-07-23T05:30:30.600Z,58.1
2017-07-23T05:31:32.236Z,58.2
2017-07-23T05:32:33.878Z,58.2
2017-07-23T05:33:35.509Z,58.3
2017-07-23T05:34:37.143Z,58.4
2017-07-23T05:35:38.781Z,57.8
2017-07-23T05:36:40.427Z,58.2
2017-07-23T05:37:42.061Z,57.7
2017-07-23T05:38:43.698Z,57.9
2017-07-23T05:39:45.332Z,57.9
2017-07-23T05:40:46.970Z,57.9
2017-07-23T05:41:48.604Z,57.8
2017-07-23T05:42:50.242Z,57.8
2017-07-23T05:43:51.882Z,57.9
2017-07-23T05:44:53.523Z,57.6
2017-07-23T05:45:55.150Z,58.0
2017-07-23T05:46:56.783Z,57.7
2017-07-23T05:47:58.421Z,58.0
2017-07-23T05:49:00.069Z,58.0
2017-07-23T05:50:01.717Z,57.9
2017-07-23T05:51:03.357Z,57.9
2017-07-23T05:52:04.993Z,58.1
2017-07-23T05:53:06.626Z,58.0
2017-07-23T05:54:08.258Z,57.8
2017-07-23T05:55:09.895Z,58.0
2017-07-23T05:56:11.531Z,57.8
2017-07-23T05:57:13.167Z,57.8
2017-07-23T05:58:14.807Z,57.8
2017-07-23T05:59:16.444Z,57.6
2017-07-23T06:00:18.074Z,57.7
2017-07-23T06:01:19.711Z,57.4
2017-07-23T06:02:21.350Z,57.5
2017-07-23T06:03:22.995Z,57.7
2017-07-23T06:04:24.624Z,57.7
2017-07-23T06:05:26.281Z,57.8
2017-07-23T06:06:27.916Z,57.7
2017-07-23T06:07:29.562Z,57.9
2017-07-23T06:08:31.214Z,57.8
2017-07-23T06:09:32.843Z,57.8
2017-07-23T06:10:34.510Z,57.9
2017-07-23T06:11:36.156Z,57.9
2017-07-23T06:12:37.801Z,57.8
2017-07-23T06:13:39.931Z,58.0
2017-07-23T06:14:41.626Z,57.8
2017-07-23T06:15:43.264Z,57.4
2017-07-23T06:16:44.903Z,57.7
2017-07-23T06:17:46.601Z,57.8
2017-07-23T06:18:48.237Z,57.7
2017-07-23T06:19:49.877Z,57.9
2017-07-23T06:20:51.510Z,57.3
2017-07-23T06:21:53.154Z,57.3
2017-07-23T06:22:54.785Z,57.5
2017-07-23T06:23:56.422Z,57.3
2017-07-23T06:24:58.061Z,57.0
2017-07-23T06:25:59.718Z,57.3
2017-07-23T06:27:01.349Z,57.1
2017-07-23T06:28:02.986Z,57.3
2017-07-23T06:29:04.630Z,57.1
2017-07-23T06:30:06.264Z,57.8
2017-07-23T06:31:07.902Z,57.8
2017-07-23T06:32:09.541Z,57.2
2017-07-23T06:33:11.211Z,57.4
2017-07-23T06:34:12.857Z,57.4
2017-07-23T06:35:14.492Z,57.2
2017-07-23T06:36:16.132Z,57.1
2017-07-23T06:37:17.766Z,57.8
2017-07-23T06:38:19.402Z,57.7
2017-07-23T06:39:21.040Z,57.6
2017-07-23T06:40:22.706Z,57.8
2017-07-23T06:41:24.354Z,57.3
2017-07-23T06:42:25.986Z,57.3
2017-07-23T06:43:27.623Z,57.3
2017-07-23T06:44:29.810Z,57.2
2017-07-23T06:45:31.446Z,57.1
2017-07-23T06:46:33.084Z,56.9
2017-07-23T06:47:34.854Z,57.0
2017-07-23T06:48:36.451Z,57.1
2017-07-23T06:49:38.088Z,57.0
2017-07-23T06:50:40.908Z,56.8
2017-07-23T06:51:42.607Z,56.7
2017-07-23T06:52:44.330Z,56.9
2017-07-23T06:53:46.102Z,56.6
2017-07-23T06:54:47.735Z,56.6
2017-07-23T06:55:49.546Z,56.7
2017-07-23T06:56:51.264Z,56.4
2017-07-23T06:57:52.900Z,57.0
2017-07-23T06:58:54.539Z,57.0
2017-07-23T06:59:56.178Z,56.6
2017-07-23T07:00:57.901Z,56.1
2017-07-23T07:02:01.544Z,56.2
2017-07-23T07:03:05.499Z,55.8
2017-07-23T07:04:07.626Z,55.7
2017-07-23T07:05:09.297Z,56.0
2017-07-23T07:06:13.776Z,56.2
2017-07-23T07:07:15.420Z,55.8
2017-07-23T07:08:17.055Z,56.0
2017-07-23T07:09:18.711Z,55.8
2017-07-23T07:10:20.354Z,55.8
2017-07-23T07:11:21.991Z,55.8
2017-07-23T07:12:23.637Z,55.9
2017-07-23T07:13:25.284Z,55.3
2017-07-23T07:14:26.919Z,55.8
2017-07-23T07:15:28.561Z,55.9
2017-07-23T07:16:30.252Z,55.5
2017-07-23T07:17:31.959Z,55.9
2017-07-23T07:18:33.613Z,55.3
2017-07-23T07:19:35.245Z,55.8
2017-07-23T07:20:36.885Z,56.2
2017-07-23T07:21:39.527Z,55.9
2017-07-23T07:22:41.167Z,55.6
2017-07-23T07:23:42.808Z,55.9
2017-07-23T07:24:44.576Z,56.2
2017-07-23T07:25:46.429Z,55.8
2017-07-23T07:26:48.068Z,55.9
2017-07-23T07:27:49.700Z,55.8
2017-07-23T07:28:54.919Z,55.9
2017-07-23T07:29:56.519Z,56.1
2017-07-23T07:30:58.182Z,55.4
2017-07-23T07:31:59.822Z,55.8
2017-07-23T07:33:01.512Z,56.3
2017-07-23T07:34:03.148Z,56.0
2017-07-23T07:35:10.875Z,56.1
2017-07-23T07:36:19.146Z,56.0
2017-07-23T07:37:20.581Z,56.2
2017-07-23T07:38:22.220Z,56.6
2017-07-23T07:39:24.141Z,56.3
2017-07-23T07:40:25.770Z,56.0
2017-07-23T07:41:27.409Z,55.6
2017-07-23T07:42:29.045Z,55.7
2017-07-23T07:43:30.691Z,55.7
2017-07-23T07:44:32.326Z,55.5
2017-07-23T07:45:33.965Z,55.3
2017-07-23T07:46:35.600Z,55.4
2017-07-23T07:47:37.232Z,55.5
2017-07-23T07:48:38.868Z,55.4
2017-07-23T07:49:40.502Z,55.0
2017-07-23T07:50:42.207Z,55.0
2017-07-23T07:51:43.845Z,55.2
2017-07-23T07:52:45.480Z,55.2
2017-07-23T07:53:47.119Z,55.4
2017-07-23T07:54:48.752Z,55.8
2017-07-23T07:55:50.387Z,55.7
2017-07-23T07:56:52.022Z,55.7
2017-07-23T07:57:53.657Z,55.3
2017-07-23T07:58:55.298Z,54.4
2017-07-23T07:59:56.939Z,55.2
2017-07-23T08:00:58.575Z,54.8
2017-07-23T08:02:00.207Z,54.8
2017-07-23T08:03:01.840Z,54.6
2017-07-23T08:04:03.474Z,54.5
2017-07-23T08:05:05.107Z,54.5
2017-07-23T08:06:06.743Z,54.7
2017-07-23T08:07:08.381Z,55.3
2017-07-23T08:08:10.024Z,55.0
2017-07-23T08:09:11.658Z,54.8
2017-07-23T08:10:13.290Z,54.8
2017-07-23T08:11:14.925Z,55.6
2017-07-23T08:12:16.557Z,55.7
2017-07-23T08:13:18.201Z,54.8
2017-07-23T08:14:19.843Z,55.1
2017-07-23T08:15:21.495Z,55.6
2017-07-23T08:16:23.129Z,55.1
2017-07-23T08:17:24.766Z,55.4
2017-07-23T08:18:26.436Z,55.2
2017-07-23T08:19:28.081Z,55.0
2017-07-23T08:20:29.717Z,54.4
2017-07-23T08:21:31.377Z,54.6
2017-07-23T08:22:33.016Z,54.7
2017-07-23T08:23:34.652Z,54.7
2017-07-23T08:24:36.285Z,54.5
2017-07-23T08:25:37.948Z,54.7
2017-07-23T08:26:39.610Z,53.9
2017-07-23T08:27:41.256Z,53.6
2017-07-23T08:28:42.894Z,53.3
2017-07-23T08:29:44.531Z,52.8
2017-07-23T08:30:46.170Z,52.9
2017-07-23T08:31:47.806Z,52.4
2017-07-23T08:32:49.439Z,53.2
2017-07-23T08:33:51.086Z,51.9
2017-07-23T08:34:52.721Z,51.8
2017-07-23T08:35:54.359Z,52.1
2017-07-23T08:36:55.996Z,52.2
2017-07-23T08:37:57.645Z,51.8
2017-07-23T08:38:59.298Z,52.7
2017-07-23T08:40:00.939Z,52.4
2017-07-23T08:41:02.571Z,52.0
2017-07-23T08:42:04.209Z,51.8
2017-07-23T08:43:05.848Z,51.8
2017-07-23T08:44:07.479Z,51.3
2017-07-23T08:45:09.124Z,50.9
2017-07-23T08:46:10.762Z,51.6
2017-07-23T08:47:12.397Z,51.5
2017-07-23T08:48:14.041Z,51.8
2017-07-23T08:49:15.668Z,51.3
2017-07-23T08:50:17.316Z,51.3
2017-07-23T08:51:18.957Z,50.5
2017-07-23T08:52:20.583Z,50.3
2017-07-23T08:53:22.217Z,50.5
2017-07-23T08:54:23.892Z,50.5
2017-07-23T08:55:25.525Z,50.7
2017-07-23T08:56:27.162Z,50.6
2017-07-23T08:57:28.800Z,49.8
2017-07-23T08:58:30.439Z,49.6
2017-07-23T08:59:33.322Z,49.3
2017-07-23T09:00:34.970Z,48.7
2017-07-23T09:01:36.602Z,48.3
2017-07-23T09:02:38.236Z,49.2
2017-07-23T09:03:39.874Z,48.2
2017-07-23T09:04:41.610Z,47.5
2017-07-23T09:05:43.271Z,48.5
2017-07-23T09:06:44.903Z,47.8
2017-07-23T09:07:46.549Z,48.2
2017-07-23T09:08:48.190Z,48.2
2017-07-23T09:09:49.821Z,47.7
2017-07-23T09:10:51.460Z,48.4
2017-07-23T09:11:53.098Z,47.9
2017-07-23T09:12:54.738Z,48.2
2017-07-23T09:13:56.363Z,48.5
2017-07-23T09:14:57.999Z,48.6
2017-07-23T09:15:59.634Z,48.3
2017-07-23T09:17:01.268Z,48.1
2017-07-23T09:18:02.905Z,47.6
2017-07-23T09:19:04.543Z,47.7
2017-07-23T09:20:06.179Z,47.7
2017-07-23T09:21:07.808Z,48.0
2017-07-23T09:22:09.443Z,46.7
2017-07-23T09:23:11.081Z,46.6
2017-07-23T09:24:12.712Z,45.8
2017-07-23T09:25:14.347Z,46.4
2017-07-23T09:26:15.985Z,46.3
2017-07-23T09:27:17.650Z,46.6
2017-07-23T09:28:19.282Z,46.7
2017-07-23T09:29:20.921Z,46.9
2017-07-23T09:30:22.558Z,46.3
2017-07-23T09:31:24.191Z,47.1
2017-07-23T09:32:25.828Z,46.8
2017-07-23T09:33:27.463Z,46.3
2017-07-23T09:34:29.102Z,46.1
2017-07-23T09:35:30.742Z,46.2
2017-07-23T09:36:32.376Z,44.8
2017-07-23T09:37:34.013Z,45.1
2017-07-23T09:38:35.649Z,45.5
2017-07-23T09:39:37.283Z,46.1
2017-07-23T09:40:38.918Z,45.8
2017-07-23T09:41:40.577Z,46.0
2017-07-23T09:42:42.207Z,45.4
2017-07-23T09:43:43.841Z,45.4
2017-07-23T09:44:45.475Z,45.1
2017-07-23T09:45:47.108Z,45.8
2017-07-23T09:46:48.744Z,45.3
2017-07-23T09:47:50.381Z,45.1
2017-07-23T09:48:52.022Z,46.2
2017-07-23T09:49:53.659Z,45.6
2017-07-23T09:50:55.537Z,44.9
2017-07-23T09:51:57.171Z,45.2
2017-07-23T09:52:58.807Z,45.4
2017-07-23T09:54:00.443Z,45.1
2017-07-23T09:55:02.090Z,46.0
2017-07-23T09:56:03.722Z,45.4
2017-07-23T09:57:05.354Z,45.9
2017-07-23T09:58:06.990Z,45.4
2017-07-23T09:59:08.626Z,46.0
2017-07-23T10:00:10.263Z,45.8
2017-07-23T10:01:11.899Z,46.3
2017-07-23T10:02:14.047Z,45.3
2017-07-23T10:03:15.702Z,45.1
2017-07-23T10:04:17.434Z,45.1
2017-07-23T10:05:19.071Z,45.4
2017-07-23T10:06:20.705Z,44.9
2017-07-23T10:07:22.343Z,44.9
2017-07-23T10:08:24.401Z,45.1
2017-07-23T10:09:26.404Z,45.4
2017-07-23T10:10:28.047Z,44.8
2017-07-23T10:11:29.758Z,45.0
2017-07-23T10:12:31.395Z,45.1
2017-07-23T10:13:34.110Z,45.1
2017-07-23T10:14:36.684Z,45.2
2017-07-23T10:15:39.310Z,45.3
2017-07-23T10:16:42.247Z,45.1
2017-07-23T10:17:43.892Z,45.2
2017-07-23T10:18:45.557Z,44.6
2017-07-23T10:19:47.190Z,45.4
2017-07-23T10:20:48.826Z,45.1
2017-07-23T10:21:50.473Z,45.4
2017-07-23T10:22:52.178Z,45.4
2017-07-23T10:23:54.388Z,45.5
2017-07-23T10:24:56.027Z,44.9
2017-07-23T10:25:58.067Z,45.1
2017-07-23T10:27:00.245Z,45.4
2017-07-23T10:28:02.368Z,45.1
2017-07-23T10:29:04.060Z,45.4
2017-07-23T10:30:05.752Z,46.2
2017-07-23T10:31:09.539Z,45.8
2017-07-23T10:32:11.703Z,45.9
2017-07-23T10:33:14.484Z,46.3
2017-07-23T10:34:19.538Z,46.3
2017-07-23T10:35:24.542Z,46.7
2017-07-23T10:36:31.998Z,45.4
2017-07-23T10:37:34.322Z,45.4
2017-07-23T10:38:39.521Z,45.1
2017-07-23T10:39:43.710Z,45.1
2017-07-23T10:40:52.644Z,44.8
2017-07-23T10:41:57.056Z,44.8
2017-07-23T10:42:59.923Z,45.1
2017-07-23T10:44:03.143Z,45.4
2017-07-23T10:45:05.117Z,45.4
2017-07-23T10:46:07.218Z,45.1
2017-07-23T10:47:13.523Z,45.8
2017-07-23T10:48:16.522Z,45.3
2017-07-23T10:49:18.821Z,45.3
2017-07-23T10:50:28.016Z,45.1
2017-07-23T10:51:32.503Z,46.1
2017-07-23T10:52:39.742Z,45.9
2017-07-23T10:53:41.330Z,45.3
2017-07-23T10:54:45.457Z,45.6
2017-07-23T10:55:48.716Z,45.3
2017-07-23T13:01:37.137Z,39.3
2017-07-23T13:02:38.799Z,40.1
2017-07-23T13:03:40.432Z,41.3
2017-07-23T13:04:42.070Z,40.8
2017-07-23T13:05:43.809Z,39.8
2017-07-23T13:06:45.870Z,41.2
2017-07-23T13:07:47.905Z,41.5
2017-07-23T13:08:49.716Z,40.9
2017-07-23T13:09:51.369Z,39.8
2017-07-23T13:10:53.005Z,39.9
2017-07-23T13:11:54.661Z,41.1
2017-07-23T13:12:56.308Z,41.8
2017-07-23T13:13:57.949Z,42.0
2017-07-23T13:14:59.589Z,42.5
2017-07-23T13:16:01.332Z,43.7
2017-07-23T13:17:03.003Z,43.8
2017-07-23T13:18:04.951Z,44.6
2017-07-23T13:19:06.990Z,44.3
2017-07-23T13:20:08.735Z,45.1
2017-07-23T13:21:11.523Z,45.2
2017-07-23T13:22:13.192Z,45.8
2017-07-23T13:23:14.835Z,45.0
2017-07-23T13:24:16.476Z,45.7
2017-07-23T13:25:18.120Z,45.9
2017-07-23T13:26:19.762Z,44.2
2017-07-23T13:27:21.427Z,44.7
2017-07-23T13:28:23.072Z,44.5
2017-07-23T13:29:24.754Z,44.3
2017-07-23T13:30:26.415Z,44.6
2017-07-23T13:31:28.056Z,44.4
2017-07-23T13:32:29.698Z,45.0
2017-07-23T13:33:31.790Z,43.9
2017-07-23T13:34:33.457Z,44.3
2017-07-23T13:35:35.105Z,44.6
2017-07-23T13:36:39.235Z,43.7
2017-07-23T13:37:43.106Z,43.9
2017-07-23T13:38:44.878Z,44.7
2017-07-23T13:39:46.718Z,44.8
2017-07-23T13:40:48.442Z,45.2
2017-07-23T13:41:50.171Z,45.0
2017-07-23T13:42:52.348Z,45.8
2017-07-23T13:43:53.996Z,46.0
2017-07-23T13:44:56.020Z,46.1
2017-07-23T13:45:57.802Z,46.5
2017-07-23T13:46:59.460Z,47.0
2017-07-23T13:48:01.096Z,47.2
2017-07-23T13:49:03.037Z,47.3
2017-07-23T13:50:05.441Z,47.3
2017-07-23T13:51:07.095Z,47.5
2017-07-23T13:52:08.796Z,47.7
2017-07-23T13:53:10.432Z,48.0
2017-07-23T13:54:12.071Z,47.7
2017-07-23T13:57:11.702Z,55.7
2017-07-23T13:58:13.334Z,50.8
2017-07-23T14:00:05.137Z,47.5
2017-07-23T14:01:06.782Z,47.6
2017-07-23T14:02:58.583Z,46.1
2017-07-23T14:04:00.215Z,45.9
2017-07-23T14:05:52.028Z,46.4
2017-07-23T14:06:53.655Z,46.2
2017-07-23T14:08:45.468Z,45.1
2017-07-23T14:09:47.124Z,44.8
2017-07-23T14:11:38.946Z,44.6
2017-07-23T14:12:40.603Z,44.6
2017-07-23T14:14:32.405Z,44.7
2017-07-23T14:15:34.038Z,44.6
2017-07-23T14:17:25.839Z,44.5
2017-07-23T14:18:27.508Z,44.0
2017-07-23T14:20:19.315Z,44.4
2017-07-23T14:21:20.948Z,43.9
2017-07-23T14:23:12.756Z,44.5
2017-07-23T14:24:14.389Z,43.5
2017-07-23T14:26:06.196Z,43.4
2017-07-23T14:27:07.838Z,43.2
2017-07-23T14:28:59.642Z,43.3
2017-07-23T14:30:01.278Z,43.2
2017-07-23T14:31:53.085Z,42.9
2017-07-23T15:17:17.476Z,43.9
2017-07-23T15:18:19.104Z,44.1
2017-07-23T15:20:10.910Z,43.7
2017-07-23T15:21:12.539Z,44.2
2017-07-23T15:23:04.350Z,44.1
2017-07-23T15:24:05.995Z,43.8
2017-07-23T15:25:57.803Z,44.1
2017-07-23T15:26:59.491Z,43.7
2017-07-23T15:28:51.291Z,43.0
2017-07-23T15:29:52.922Z,43.9
2017-07-23T15:31:44.730Z,43.1
2017-07-23T15:32:46.370Z,43.0
2017-07-23T15:34:38.171Z,43.7
2017-07-23T15:35:39.802Z,43.6
2017-07-23T15:37:31.616Z,43.6
2017-07-23T15:38:33.248Z,43.7
2017-07-23T15:40:25.062Z,43.8
2017-07-23T15:41:26.693Z,44.1
2017-07-23T15:43:18.537Z,43.5
2017-07-23T15:44:20.160Z,43.7
2017-07-23T15:46:11.981Z,44.1
2017-07-23T15:47:13.620Z,44.8
2017-07-23T15:48:15.253Z,45.5
2017-07-23T15:51:45.264Z,47.3
2017-07-23T15:52:46.901Z,46.1
2017-07-23T15:54:38.763Z,46.4
2017-07-23T15:55:40.401Z,46.4
2017-07-23T15:57:32.348Z,46.0
2017-07-23T15:58:34.001Z,45.6
2017-07-23T16:00:25.831Z,45.4
2017-07-23T16:01:27.573Z,44.6
2017-07-23T16:03:19.379Z,44.3
2017-07-23T16:04:21.014Z,44.5
2017-07-23T16:06:13.242Z,44.1
2017-07-23T16:07:15.253Z,44.3
2017-07-23T16:09:07.075Z,44.6
2017-07-23T16:10:08.710Z,44.2
2017-07-23T16:12:00.540Z,43.6
2017-07-23T16:13:02.177Z,43.8
2017-07-23T16:14:54.464Z,43.4
2017-07-23T16:15:56.117Z,43.3
2017-07-23T16:16:57.756Z,43.7
2017-07-23T16:17:59.398Z,43.9
2017-07-23T16:19:01.035Z,43.8
2017-07-23T16:20:02.677Z,44.0
2017-07-23T16:21:04.323Z,43.7
2017-07-23T16:22:05.965Z,44.3
2017-07-23T16:23:08.130Z,46.4
2017-07-23T16:24:09.776Z,46.3
2017-07-23T16:25:11.864Z,46.4
2017-07-23T16:26:13.545Z,45.9
2017-07-23T16:27:15.192Z,45.5
2017-07-23T16:28:16.841Z,45.1
2017-07-23T16:29:18.538Z,45.3
2017-07-23T16:30:20.219Z,45.2
2017-07-23T16:31:21.863Z,45.3
2017-07-23T16:32:23.506Z,45.3
2017-07-23T16:33:25.149Z,45.8
2017-07-23T16:34:26.794Z,46.2
2017-07-23T16:35:28.434Z,46.6
2017-07-23T16:36:30.077Z,46.3
2017-07-23T16:37:31.715Z,46.5
2017-07-23T16:38:33.353Z,46.3
2017-07-23T16:39:34.993Z,45.9
2017-07-23T16:40:36.669Z,46.4
2017-07-23T16:41:38.308Z,45.8
2017-07-23T16:42:39.949Z,46.2
2017-07-23T16:43:41.591Z,46.2
2017-07-23T16:44:43.230Z,46.1
2017-07-23T16:45:44.911Z,46.0
2017-07-23T16:46:46.559Z,45.9
2017-07-23T16:47:48.199Z,45.6
2017-07-23T16:48:49.841Z,45.5
2017-07-23T16:49:51.505Z,45.4
2017-07-23T16:50:53.152Z,45.5
2017-07-23T16:51:54.782Z,44.9
2017-07-23T16:52:56.421Z,45.1
2017-07-23T16:53:58.060Z,45.3
2017-07-23T16:54:59.704Z,45.5
2017-07-23T16:56:01.341Z,45.6
2017-07-23T16:57:02.981Z,45.3
2017-07-23T16:58:04.624Z,45.0
2017-07-23T16:59:06.261Z,44.6
2017-07-23T17:00:07.901Z,43.8
2017-07-23T17:01:09.542Z,43.7